Keflavik, Iceland

11:42 AM GMT on September 05, 2015 (GMT +0000)
Keflavik | | Change Station
CLOSE
Current Station
Airport
Location: Keflavik,
Elevation: 177 ft
Nearby Weather Stations

Elev 177 ft 63.98 °N, 22.59 °W | Updated 12 minutes ago

Light Drizzle
Light Drizzle Mist
50 °F
Feels Like 50 °F
N
20
Wind Variable Wind from SW

Today
High -- | Low -- °F
--% Chance of Precip.
Yesterday
High -- | Low -- °F
Precip. -- in
6:23 AM 8:32 PM
Waning Gibbous, 49% visible
Pressure 30.04 in
Visibility 1.2 miles
Clouds Overcast 300 ft
Dew Point 50 °F
Humidity 100%
Rainfall 0.00 in
Snow Depth Not available.
UV 1 out of 12
Pollen Not available.
Air Quality Not available.
Flu Activity Not available.
METAR BIKF 051130Z 23017KT 2000 -DZ BR OVC003 10/10 Q1017
Pressure 30.04 in
Visibility 1.2 miles
Clouds Overcast 300 ft
Dew Point 50 °F
Humidity 100%
Rainfall 0.00 in
Snow Depth Not available.
UV 1 out of 12
Pollen Not available.
Air Quality Not available.
Flu Activity Not available.
METAR BIKF 051130Z 23017KT 2000 -DZ BR OVC003 10/10 Q1017

10-Day Weather Forecast

×

Almanac

Astronomy

Sep. 05, 2015 Rise Set
Actual Time
Civil Twilight
Nautical Twilight
Astronomical Twilight
Moon
Length of Visible Light
Length of Day
Tomorrow will be .
, % of the Moon is Illuminated

Today's Extremes

Country Highs Country Lows

Community

WunderPhotos

Upload Photos

1,852,449 photos uploaded!

WunderBlogs® & News

Nearby

Air Quality

  Air Quality AQ Index Pollutant
Not available.

Snow Depth

Station Depth Elevation

Earthquake Activity

City Distance Mag. Time & Date
Minimum magnitude displayed is 2.5.

Coastal Water Temperatures

Place Temperature

Stations

Nearby Weather Stations

Station Location Temp. Windchill Dew Point Humidity Wind Precip. Elev Updated Type